Time;durP1;ratioP1;P1;durP2;ratioP2;P2;SDS_P1;SDS_P2;PMS_P1;PMS_P2;Temp;Humidity;BMP_temperature;BMP_pressure;BME280_temperature;BME280_humidity;BME280_pressure;Samples;Min_cycle;Max_cycle;Signal;HPM_P1;HPM_P2
2022/09/26 00:01:24;;;;;;;17.43;11.30;;;9.00;99.90;8.30;99522;;;;584256;243;24052;-82
2022/09/26 00:03:52;;;;;;;13.90;10.63;;;9.00;99.90;8.30;99512;;;;583730;243;24064;-82
2022/09/26 00:06:20;;;;;;;17.23;10.23;;;9.00;99.90;8.30;99507;;;;584370;243;24102;-82
2022/09/26 00:08:48;;;;;;;13.57;10.60;;;9.10;99.90;8.40;99508;;;;584003;243;24038;-82
2022/09/26 00:11:18;;;;;;;13.70;10.57;;;9.10;99.90;8.40;99498;;;;583693;243;24054;-81
2022/09/26 00:13:45;;;;;;;12.33;10.00;;;9.20;99.90;8.50;99498;;;;583598;243;24047;-81
2022/09/26 00:16:14;;;;;;;13.77;10.17;;;9.20;99.90;8.50;99485;;;;583752;243;24146;-80
2022/09/26 00:18:41;;;;;;;12.20;10.13;;;9.20;99.90;8.50;99488;;;;592879;242;24134;-80
2022/09/26 00:21:12;;;;;;;12.10;9.77;;;9.20;99.90;8.40;99490;;;;582141;243;24070;-81
2022/09/26 00:23:43;;;;;;;12.47;9.97;;;9.20;99.90;8.40;99490;;;;582226;243;24081;-81
2022/09/26 00:26:08;;;;;;;13.07;10.13;;;9.20;99.90;8.40;99490;;;;583837;243;24038;-82
2022/09/26 00:28:37;;;;;;;11.80;9.57;;;9.10;99.90;8.40;99491;;;;584274;243;24050;-82
2022/09/26 00:31:08;;;;;;;11.87;10.17;;;9.10;99.90;8.40;99492;;;;594756;240;24065;-81
2022/09/26 00:33:32;;;;;;;13.70;10.97;;;9.10;99.90;8.40;99480;;;;583187;242;24171;-81
2022/09/26 00:36:00;;;;;;;13.80;11.03;;;9.10;99.90;8.40;99471;;;;583788;242;24068;-81
2022/09/26 00:38:31;;;;;;;12.70;10.57;;;9.10;99.90;8.40;99470;;;;585346;242;24053;-82
2022/09/26 00:40:56;;;;;;;12.27;9.90;;;9.10;99.90;8.40;99467;;;;584781;242;24043;-81
2022/09/26 00:43:33;;;;;;;14.03;10.23;;;9.10;99.90;8.40;99470;;;;582930;242;24045;-81
2022/09/26 00:46:33;;;;;;;12.87;10.00;;;9.10;99.90;8.50;99461;;;;584591;242;24069;-81
2022/09/26 00:49:16;;;;;;;13.37;9.53;;;9.20;99.90;8.50;99460;;;;584526;243;24072;-81
2022/09/26 00:51:44;;;;;;;13.57;10.70;;;9.20;99.90;8.60;99457;;;;584340;243;24077;-81
2022/09/26 00:54:12;;;;;;;13.77;11.40;;;9.30;99.90;8.70;99457;;;;583701;243;24126;-82
2022/09/26 00:56:41;;;;;;;15.37;10.97;;;9.40;99.90;8.70;99458;;;;584232;243;24034;-82
2022/09/26 00:59:13;;;;;;;14.80;11.03;;;9.40;99.90;8.90;99449;;;;584078;243;24043;-82
2022/09/26 01:01:42;;;;;;;16.27;10.57;;;9.60;99.90;8.90;99454;;;;582419;243;24080;-81
2022/09/26 01:04:11;;;;;;;13.70;10.37;;;9.70;99.90;9.00;99458;;;;582752;243;24053;-78
2022/09/26 01:06:38;;;;;;;10.37;9.07;;;9.70;99.90;9.10;99449;;;;584242;243;24149;-80
2022/09/26 01:09:11;;;;;;;13.70;10.53;;;9.80;99.90;9.20;99449;;;;582519;243;24092;-81
2022/09/26 01:11:37;;;;;;;12.17;9.53;;;9.80;99.90;9.30;99440;;;;583909;243;24064;-82
2022/09/26 01:14:05;;;;;;;12.00;9.83;;;9.90;99.90;9.30;99437;;;;584200;243;24096;-81
2022/09/26 01:16:37;;;;;;;14.27;10.97;;;10.10;99.90;9.40;99437;;;;584096;243;24102;-81
2022/09/26 01:19:02;;;;;;;13.20;10.07;;;10.00;99.90;9.40;99434;;;;592915;242;25100;-80
2022/09/26 01:21:33;;;;;;;13.23;10.40;;;10.10;99.90;9.50;99429;;;;583955;243;24030;-79
2022/09/26 01:24:28;;;;;;;16.43;10.83;;;10.20;99.90;9.50;99431;;;;583704;243;24066;-80
2022/09/26 01:27:19;;;;;;;14.07;10.20;;;10.20;99.90;9.60;99438;;;;569773;248;24067;-81
2022/09/26 01:30:08;;;;;;;15.10;10.13;;;10.30;99.90;9.60;99435;;;;582236;243;24066;-80
2022/09/26 01:32:58;;;;;;;10.80;9.70;;;10.30;99.90;9.60;99427;;;;580101;243;24078;-82
2022/09/26 01:35:50;;;;;;;12.97;9.67;;;10.30;99.90;9.70;99430;;;;583680;243;24275;-83
2022/09/26 01:38:32;;;;;;;15.93;10.07;;;10.40;99.90;9.80;99434;;;;593384;242;24026;-82
2022/09/26 01:41:19;;;;;;;13.47;10.80;;;10.40;99.90;9.80;99422;;;;583785;243;24068;-82
2022/09/26 01:44:04;;;;;;;11.53;9.23;;;10.50;99.90;9.90;99423;;;;585288;242;24052;-83
2022/09/26 01:46:59;;;;;;;16.43;10.13;;;10.60;99.90;10.00;99426;;;;585116;242;24067;-81
2022/09/26 01:49:49;;;;;;;13.33;10.60;;;10.60;99.90;10.00;99420;;;;584704;242;24058;-82
2022/09/26 01:52:29;;;;;;;13.30;10.90;;;10.60;99.90;10.00;99424;;;;584307;242;24072;-82
2022/09/26 01:55:09;;;;;;;13.20;9.97;;;10.60;99.90;10.00;99413;;;;583965;242;24050;-83
2022/09/26 01:57:37;;;;;;;14.03;10.10;;;10.70;99.90;10.00;99407;;;;593351;242;24039;-83
2022/09/26 02:00:06;;;;;;;13.40;11.17;;;10.70;99.90;10.10;99417;;;;583834;243;24051;-81
2022/09/26 02:02:35;;;;;;;14.57;11.43;;;10.70;99.90;10.10;99411;;;;583878;243;24092;-80
2022/09/26 02:05:12;;;;;;;18.80;11.47;;;10.70;99.90;10.10;99415;;;;584316;243;24071;-81
2022/09/26 02:07:40;;;;;;;15.40;11.23;;;10.80;99.90;10.20;99411;;;;582212;243;24085;-81
2022/09/26 02:10:17;;;;;;;13.50;11.43;;;10.90;99.90;10.20;99400;;;;584405;243;24043;-81
2022/09/26 02:12:45;;;;;;;18.20;12.17;;;10.90;99.90;10.30;99407;;;;583782;243;25088;-81
2022/09/26 02:15:13;;;;;;;15.70;11.53;;;10.90;99.90;10.30;99400;;;;584316;243;25131;-81
2022/09/26 02:17:44;;;;;;;17.23;10.67;;;10.90;99.90;10.30;99401;;;;584224;243;24081;-81
2022/09/26 02:20:18;;;;;;;19.03;11.37;;;10.90;99.90;10.30;99399;;;;583846;243;24052;-81
2022/09/26 02:22:46;;;;;;;20.30;10.57;;;11.00;99.90;10.30;99396;;;;583901;243;24235;-82
2022/09/26 02:25:13;;;;;;;17.20;11.07;;;10.90;99.90;10.30;99392;;;;584175;243;24059;-82
2022/09/26 02:27:41;;;;;;;16.37;10.90;;;11.00;99.90;10.30;99388;;;;583810;243;24087;-80
2022/09/26 02:30:09;;;;;;;16.97;11.47;;;10.90;99.90;10.30;99395;;;;583673;243;24056;-81
2022/09/26 02:32:39;;;;;;;13.93;11.03;;;10.90;99.90;10.20;99393;;;;583798;243;24098;-81
2022/09/26 02:37:51;;;;;;;13.10;10.47;;;10.80;99.90;10.20;99390;;;;583773;243;24029;-81
2022/09/26 02:40:19;;;;;;;14.57;10.33;;;10.80;99.90;10.10;99389;;;;583735;243;24063;-82
2022/09/26 02:42:50;;;;;;;17.30;10.40;;;10.80;99.90;10.10;99389;;;;583759;243;24101;-83
2022/09/26 02:45:35;;;;;;;13.10;10.50;;;10.70;99.90;10.00;99381;;;;583403;243;24071;-81
2022/09/26 02:48:27;;;;;;;13.00;10.27;;;10.70;99.90;10.10;99376;;;;583682;243;24079;-82
2022/09/26 02:51:06;;;;;;;10.90;9.73;;;10.70;99.90;10.10;99379;;;;583993;243;24038;-80
2022/09/26 02:53:58;;;;;;;13.90;10.37;;;10.70;99.90;10.10;99381;;;;584351;242;24026;-81
2022/09/26 02:56:41;;;;;;;12.57;10.17;;;10.70;99.90;10.10;99381;;;;584978;242;24045;-81
2022/09/26 02:59:46;;;;;;;12.63;10.17;;;10.70;99.90;10.10;99383;;;;584253;242;24038;-82
2022/09/26 03:02:17;;;;;;;15.97;10.60;;;10.80;99.90;10.10;99372;;;;582260;242;24058;-80
2022/09/26 03:04:44;;;;;;;11.90;9.33;;;10.70;99.90;10.10;99372;;;;584280;242;24118;-82
2022/09/26 03:07:21;;;;;;;12.37;9.07;;;10.80;99.90;10.10;99376;;;;584412;242;24045;-81
2022/09/26 03:09:49;;;;;;;13.73;10.57;;;10.70;99.90;10.20;99368;;;;585492;242;24045;-81
2022/09/26 03:12:17;;;;;;;11.97;9.60;;;10.80;99.90;10.20;99362;;;;585175;243;24061;-83
2022/09/26 03:14:48;;;;;;;16.87;10.37;;;10.80;99.90;10.20;99357;;;;584407;243;24043;-83
2022/09/26 03:17:16;;;;;;;13.87;9.93;;;10.80;99.90;10.10;99352;;;;583804;243;24051;-82
2022/09/26 03:19:50;;;;;;;11.73;9.57;;;10.80;99.90;10.10;99350;;;;583998;243;24055;-80
2022/09/26 03:22:21;;;;;;;11.53;9.63;;;10.70;99.90;10.00;99351;;;;583910;243;24072;-82
2022/09/26 03:24:45;;;;;;;11.47;9.37;;;10.60;99.90;10.00;99350;;;;583926;243;24046;-81
2022/09/26 03:27:16;;;;;;;13.03;9.73;;;10.60;99.90;10.00;99344;;;;584016;243;24130;-81
2022/09/26 03:29:44;;;;;;;12.77;10.00;;;10.60;99.90;10.00;99336;;;;584152;243;24060;-81
2022/09/26 03:32:10;;;;;;;13.10;10.03;;;10.60;99.90;9.90;99349;;;;584032;243;24057;-80
2022/09/26 03:34:39;;;;;;;11.10;9.10;;;10.60;99.90;9.90;99340;;;;584223;243;24058;-79
2022/09/26 03:37:07;;;;;;;16.17;10.10;;;10.50;99.90;9.90;99342;;;;584131;243;24047;-82
2022/09/26 03:39:34;;;;;;;11.50;9.07;;;10.50;99.90;9.90;99338;;;;584200;243;24073;-81
2022/09/26 03:42:02;;;;;;;11.73;9.87;;;10.40;99.90;9.80;99337;;;;584078;243;24064;-81
2022/09/26 03:44:31;;;;;;;16.90;10.17;;;10.40;99.90;9.80;99314;;;;584189;243;24126;-81
2022/09/26 03:46:59;;;;;;;12.53;10.07;;;10.40;99.90;9.70;99313;;;;584255;243;24105;-81
2022/09/26 03:49:27;;;;;;;10.23;8.80;;;10.40;99.90;9.70;99309;;;;584199;243;24124;-81
2022/09/26 03:51:55;;;;;;;14.10;9.63;;;10.30;99.90;9.70;99311;;;;584118;243;24077;-82
2022/09/26 03:54:23;;;;;;;13.63;10.03;;;10.30;99.90;9.70;99310;;;;584085;243;24116;-82
2022/09/26 03:56:50;;;;;;;13.97;11.13;;;10.30;99.90;9.60;99308;;;;584122;243;24106;-81
2022/09/26 03:59:19;;;;;;;14.43;11.20;;;10.20;99.90;9.60;99308;;;;584250;243;24032;-81
2022/09/26 04:01:47;;;;;;;15.13;11.10;;;10.20;99.90;9.60;99305;;;;584064;243;24115;-81
2022/09/26 04:04:15;;;;;;;12.57;10.87;;;10.20;99.90;9.60;99310;;;;584467;240;24127;-81
2022/09/26 04:06:43;;;;;;;15.93;11.07;;;10.20;99.90;9.60;99310;;;;586102;242;24105;-81
2022/09/26 04:09:11;;;;;;;17.13;10.67;;;10.20;99.90;9.60;99299;;;;585914;242;24054;-83
2022/09/26 04:11:39;;;;;;;14.90;11.13;;;10.20;99.90;9.60;99311;;;;584904;242;24060;-80
2022/09/26 04:14:07;;;;;;;14.67;11.27;;;10.20;99.90;9.50;99298;;;;584426;242;24044;-81
2022/09/26 04:16:35;;;;;;;16.20;11.93;;;10.20;99.90;9.50;99311;;;;584422;242;24038;-80
2022/09/26 04:19:05;;;;;;;15.47;11.60;;;10.10;99.90;9.50;99307;;;;583822;242;24039;-80
2022/09/26 04:21:34;;;;;;;13.87;10.93;;;10.10;99.90;9.50;99300;;;;583548;242;24098;-81
2022/09/26 04:23:59;;;;;;;16.00;11.73;;;10.10;99.90;9.50;99308;;;;584098;243;24035;-81
2022/09/26 04:26:27;;;;;;;14.93;12.40;;;10.10;99.90;9.50;99306;;;;584013;243;24050;-81
2022/09/26 04:28:55;;;;;;;14.97;12.30;;;10.10;99.90;9.50;99293;;;;584085;243;24052;-82
2022/09/26 04:31:23;;;;;;;15.37;11.90;;;10.10;99.90;9.50;99300;;;;584013;243;24047;-81
2022/09/26 04:33:54;;;;;;;20.40;13.17;;;10.10;99.90;9.50;99300;;;;584047;243;24034;-81
2022/09/26 04:36:19;;;;;;;16.37;12.13;;;10.20;99.90;9.60;99304;;;;583863;243;24054;-80
2022/09/26 04:38:47;;;;;;;20.90;13.77;;;10.10;99.90;9.60;99311;;;;584033;243;24044;-81
2022/09/26 04:41:15;;;;;;;18.77;12.93;;;10.20;99.90;9.60;99298;;;;583971;243;24043;-82
2022/09/26 04:43:43;;;;;;;14.40;11.33;;;10.20;99.90;9.60;99295;;;;583447;243;24043;-82
2022/09/26 04:46:15;;;;;;;17.63;12.70;;;10.20;99.90;9.60;99293;;;;583864;243;24032;-82
2022/09/26 04:48:42;;;;;;;22.50;13.47;;;10.20;99.90;9.60;99296;;;;583500;243;24047;-83
2022/09/26 04:51:11;;;;;;;27.10;14.30;;;10.20;99.90;9.60;99306;;;;593270;242;24055;-81
2022/09/26 04:53:39;;;;;;;17.10;12.37;;;10.20;99.90;9.60;99299;;;;583710;243;24053;-82
2022/09/26 04:56:06;;;;;;;16.97;13.47;;;10.20;99.90;9.60;99297;;;;583677;243;24084;-83
2022/09/26 04:58:34;;;;;;;19.53;14.33;;;10.20;99.90;9.60;99305;;;;583558;243;24055;-83
2022/09/26 05:01:05;;;;;;;20.23;13.70;;;10.20;99.90;9.60;99296;;;;583589;243;24044;-83
2022/09/26 05:03:30;;;;;;;17.47;13.63;;;10.20;99.90;9.60;99298;;;;583307;243;24050;-82
2022/09/26 05:05:58;;;;;;;19.93;13.93;;;10.20;99.90;9.60;99296;;;;583819;243;24062;-84
2022/09/26 05:08:27;;;;;;;21.70;14.80;;;10.20;99.90;9.60;99293;;;;581594;241;24038;-82
2022/09/26 05:10:54;;;;;;;19.93;13.90;;;10.20;99.90;9.60;99293;;;;583779;243;24052;-82
2022/09/26 05:13:22;;;;;;;20.13;15.23;;;10.20;99.90;9.60;99285;;;;583606;243;24035;-82
2022/09/26 05:15:52;;;;;;;18.30;14.90;;;10.20;99.90;9.60;99286;;;;583871;241;24035;-81
2022/09/26 05:18:20;;;;;;;22.37;15.27;;;10.20;99.90;9.60;99281;;;;594364;241;24041;-81
2022/09/26 05:20:47;;;;;;;19.00;14.57;;;10.20;99.90;9.50;99288;;;;592619;241;24082;-81
2022/09/26 05:26:20;;;;;;;24.87;16.03;;;10.20;99.90;9.50;99282;;;;584756;242;24041;-82
2022/09/26 05:29:00;;;;;;;23.93;16.83;;;10.10;99.90;9.50;99282;;;;584262;242;24080;-83
2022/09/26 05:31:25;;;;;;;23.17;16.80;;;10.10;99.90;9.50;99280;;;;584064;242;24041;-81
2022/09/26 05:33:52;;;;;;;28.23;17.83;;;10.20;99.90;9.60;99282;;;;584613;242;24067;-81
2022/09/26 05:36:21;;;;;;;33.70;26.17;;;10.20;99.90;9.60;99276;;;;579353;243;45869;-81
2022/09/26 05:38:49;;;;;;;32.27;21.20;;;10.20;99.90;9.60;99268;;;;584404;243;24032;-81
2022/09/26 05:41:18;;;;;;;27.07;19.27;;;10.30;99.90;9.70;99277;;;;584735;243;24060;-81
2022/09/26 05:43:45;;;;;;;32.10;18.47;;;10.30;99.90;9.70;99271;;;;582727;243;24034;-82
2022/09/26 05:46:16;;;;;;;27.60;19.57;;;10.40;99.90;9.80;99273;;;;584900;243;24049;-82
2022/09/26 05:48:40;;;;;;;26.60;18.53;;;10.40;99.90;9.90;99266;;;;584215;243;24054;-82
2022/09/26 05:51:14;;;;;;;28.47;19.63;;;10.50;99.90;9.90;99272;;;;583989;243;24076;-81
2022/09/26 05:53:43;;;;;;;27.87;18.20;;;10.60;99.90;10.00;99261;;;;583635;243;24047;-82
2022/09/26 05:56:07;;;;;;;27.97;18.63;;;10.60;99.90;10.10;99260;;;;583350;243;24101;-81
2022/09/26 05:58:35;;;;;;;36.03;18.10;;;10.70;99.90;10.10;99261;;;;583909;243;24043;-81
2022/09/26 06:01:06;;;;;;;30.63;19.77;;;10.80;99.90;10.20;99261;;;;583746;243;24035;-81
2022/09/26 06:03:37;;;;;;;23.60;17.93;;;10.80;99.90;10.20;99266;;;;583535;243;24031;-81
2022/09/26 06:06:07;;;;;;;23.30;17.33;;;10.90;99.90;10.30;99274;;;;583510;243;24053;-81
2022/09/26 06:08:35;;;;;;;25.47;18.03;;;10.90;99.90;10.40;99265;;;;583796;243;24098;-82
2022/09/26 06:11:03;;;;;;;34.30;19.27;;;11.00;99.90;10.60;99260;;;;583833;243;24044;-81
2022/09/26 06:13:31;;;;;;;26.77;18.53;;;11.20;99.90;10.70;99260;;;;581553;243;24060;-82
2022/09/26 06:16:08;;;;;;;28.63;20.30;;;11.30;99.90;10.80;99255;;;;583963;243;24071;-82
2022/09/26 06:18:33;;;;;;;26.03;18.70;;;11.50;99.90;11.00;99258;;;;583513;243;24051;-81
2022/09/26 06:21:09;;;;;;;23.03;18.17;;;11.60;99.90;11.10;99256;;;;583998;243;24016;-82
2022/09/26 06:23:37;;;;;;;26.17;17.90;;;11.70;99.90;11.30;99251;;;;583902;243;24081;-82
2022/09/26 06:26:07;;;;;;;29.60;18.80;;;11.80;99.90;11.50;99254;;;;584231;243;24054;-82
2022/09/26 06:28:36;;;;;;;28.17;18.40;;;12.00;99.90;11.70;99254;;;;584658;242;24042;-81
2022/09/26 06:31:01;;;;;;;29.63;19.03;;;12.20;99.90;11.90;99252;;;;584893;242;24051;-83
2022/09/26 06:33:29;;;;;;;25.23;18.10;;;12.40;99.90;12.40;99259;;;;585052;242;24043;-83
2022/09/26 06:36:03;;;;;;;21.30;17.70;;;12.90;99.90;12.90;99263;;;;586087;242;24011;-82
2022/09/26 06:38:28;;;;;;;23.43;17.50;;;13.30;99.90;13.20;99252;;;;585402;242;24023;-83
2022/09/26 06:40:55;;;;;;;30.97;18.73;;;13.70;99.90;13.40;99258;;;;585002;242;24042;-83
2022/09/26 06:43:23;;;;;;;21.33;16.53;;;13.90;99.90;13.60;99255;;;;585587;242;24059;-82
2022/09/26 06:45:52;;;;;;;54.40;19.73;;;14.10;99.90;13.90;99257;;;;585532;243;24023;-82
2022/09/26 06:48:22;;;;;;;22.93;16.53;;;14.50;99.90;14.20;99260;;;;584820;243;24038;-82
2022/09/26 06:50:53;;;;;;;25.77;18.03;;;14.70;99.90;14.40;99262;;;;584707;243;24053;-82
2022/09/26 06:53:24;;;;;;;22.67;16.53;;;14.90;99.90;14.70;99260;;;;583080;243;24084;-82
2022/09/26 06:55:48;;;;;;;20.93;16.37;;;15.20;99.90;14.80;99278;;;;584385;243;24056;-81
2022/09/26 06:58:16;;;;;;;20.73;16.07;;;15.40;99.90;15.00;99267;;;;584490;243;24102;-81
2022/09/26 07:00:44;;;;;;;18.03;15.67;;;15.60;99.90;15.20;99275;;;;583950;243;24063;-83
2022/09/26 07:03:14;;;;;;;21.93;14.97;;;15.80;99.90;15.40;99275;;;;584161;243;24036;-81
2022/09/26 07:05:41;;;;;;;21.37;15.30;;;16.00;99.90;15.60;99278;;;;583761;243;24067;-82
2022/09/26 07:08:12;;;;;;;17.77;15.67;;;16.20;99.90;15.60;99281;;;;583666;243;24092;-82
2022/09/26 07:10:36;;;;;;;18.90;16.53;;;16.20;99.90;15.60;99281;;;;583243;243;25148;-82
2022/09/26 07:13:09;;;;;;;21.93;15.30;;;16.20;99.90;15.60;99274;;;;584131;243;24082;-83
2022/09/26 07:15:38;;;;;;;18.20;14.63;;;16.20;99.90;15.50;99278;;;;583778;242;24036;-84
2022/09/26 07:18:03;;;;;;;16.67;14.87;;;16.10;99.90;15.50;99281;;;;583545;243;24104;-83
2022/09/26 07:20:33;;;;;;;19.97;14.70;;;16.10;99.90;15.50;99272;;;;583874;243;24071;-83
2022/09/26 07:23:08;;;;;;;19.20;15.53;;;16.10;99.90;15.70;99275;;;;583677;243;24040;-83
2022/09/26 07:25:32;;;;;;;18.53;15.77;;;16.20;99.90;16.10;99264;;;;592537;241;24046;-83
2022/09/26 07:28:03;;;;;;;22.10;14.80;;;16.50;99.90;16.50;99264;;;;583828;243;24092;-83
2022/09/26 07:30:34;;;;;;;18.53;13.90;;;16.90;99.90;17.20;99268;;;;583867;243;24077;-82
2022/09/26 07:33:03;;;;;;;16.87;13.17;;;18.50;99.90;18.40;99269;;;;583516;243;24029;-82
2022/09/26 07:35:28;;;;;;;13.93;12.43;;;19.80;99.90;19.80;99268;;;;583751;243;24082;-82
2022/09/26 07:37:57;;;;;;;14.70;12.57;;;19.80;99.90;21.00;99271;;;;584208;243;24024;-82
2022/09/26 07:40:27;;;;;;;17.50;14.27;;;21.20;99.90;21.70;99272;;;;585531;242;23126;-82
2022/09/26 07:42:52;;;;;;;13.33;12.00;;;22.00;99.90;22.10;99272;;;;585488;241;24028;-82
2022/09/26 07:50:09;;;;;;;14.17;12.37;;;22.50;99.90;22.40;99273;;;;585061;242;24016;-82
2022/09/26 07:50:34;;;;;;;17.73;13.43;;;23.80;99.30;25.00;99270;;;;584829;242;24027;-82
2022/09/26 07:53:02;;;;;;;13.37;12.10;;;25.80;92.00;25.20;99269;;;;584898;242;24077;-82
2022/09/26 07:55:31;;;;;;;14.03;12.57;;;25.40;90.90;24.60;99263;;;;585078;242;24038;-84
2022/09/26 07:57:59;;;;;;;15.45;13.85;;;25.40;91.00;24.50;99277;;;;579739;243;35058;-81
2022/09/26 08:00:29;;;;;;;14.13;12.67;;;25.20;89.80;24.20;99267;;;;584796;243;24105;-82
2022/09/26 08:02:57;;;;;;;14.00;12.50;;;24.70;89.90;23.90;99278;;;;584569;243;23060;-81
2022/09/26 08:05:25;;;;;;;13.07;11.97;;;24.70;89.10;23.90;99275;;;;584728;243;24079;-82
2022/09/26 08:07:51;;;;;;;13.90;12.60;;;24.50;89.70;24.00;99276;;;;585585;243;23087;-82
2022/09/26 08:10:22;;;;;;;13.80;12.50;;;24.50;89.70;24.60;99276;;;;584802;243;23053;-82
2022/09/26 08:12:49;;;;;;;14.47;12.80;;;24.90;88.90;25.10;99279;;;;584400;243;23042;-82
2022/09/26 08:15:17;;;;;;;14.30;12.83;;;25.40;87.70;26.00;99278;;;;584338;243;23052;-82
2022/09/26 08:17:45;;;;;;;13.73;11.90;;;26.20;85.90;27.50;99280;;;;584329;243;24046;-82
2022/09/26 08:20:13;;;;;;;12.53;11.27;;;27.70;81.00;28.80;99282;;;;584298;243;23036;-81
2022/09/26 08:22:41;;;;;;;11.73;10.67;;;29.10;75.50;30.30;99294;;;;584511;243;23045;-82
2022/09/26 08:25:09;;;;;;;11.75;10.85;;;30.50;70.60;31.70;99291;;;;584291;243;23030;-82
2022/09/26 08:27:36;;;;;;;12.10;11.05;;;32.00;64.50;32.70;99288;;;;584216;243;23038;-83
2022/09/26 08:30:08;;;;;;;11.07;10.07;;;33.10;59.70;33.70;99296;;;;584225;243;24024;-82
2022/09/26 08:32:32;;;;;;;10.32;9.32;;;34.20;56.90;34.60;99291;;;;593094;240;24108;-83
2022/09/26 08:35:00;;;;;;;10.68;9.63;;;35.20;54.10;35.10;99307;;;;584251;243;23095;-84
2022/09/26 08:37:31;;;;;;;11.10;9.98;;;35.80;52.40;34.70;99297;;;;584500;243;23069;-82
2022/09/26 08:39:56;;;;;;;10.55;9.75;;;35.60;51.00;35.30;99299;;;;584546;243;23048;-82
2022/09/26 08:42:45;;;;;;;9.93;9.13;;;36.00;50.20;35.90;99299;;;;584428;243;23124;-82
2022/09/26 08:48:38;;;;;;;9.82;8.93;;;36.90;48.10;35.90;99308;;;;584371;243;23055;-84
2022/09/26 08:51:32;;;;;;;10.10;9.00;;;36.90;46.90;36.00;99307;;;;585076;242;23094;-83
2022/09/26 08:54:10;;;;;;;9.52;8.60;;;37.40;47.00;36.50;99316;;;;585925;242;23044;-83
2022/09/26 08:56:50;;;;;;;9.10;8.30;;;37.70;46.20;36.60;99311;;;;585354;242;23041;-84
2022/09/26 08:59:23;;;;;;;8.60;7.85;;;37.70;46.10;34.90;99312;;;;584987;242;23051;-84
2022/09/26 09:01:51;;;;;;;8.65;7.82;;;36.80;46.20;34.50;99309;;;;594085;242;23045;-85
2022/09/26 09:04:34;;;;;;;7.80;7.30;;;36.00;47.40;34.60;99308;;;;594349;242;23056;-81
2022/09/26 09:07:02;;;;;;;7.97;7.47;;;35.90;47.40;33.50;99306;;;;580990;242;23055;-82
2022/09/26 09:09:30;;;;;;;8.48;7.68;;;35.10;47.60;32.10;99309;;;;585027;243;23048;-83
2022/09/26 09:12:24;;;;;;;7.68;7.07;;;33.90;48.50;31.10;99300;;;;584922;243;23041;-83
2022/09/26 09:15:20;;;;;;;8.00;7.40;;;32.80;50.00;30.60;99313;;;;584782;243;24077;-84
2022/09/26 09:18:13;;;;;;;9.88;9.00;;;31.40;53.00;30.40;99313;;;;583276;243;23126;-84
2022/09/26 09:21:17;;;;;;;11.50;10.55;;;31.40;53.00;30.30;99304;;;;593903;242;23048;-84
2022/09/26 09:23:51;;;;;;;12.73;11.45;;;31.20;53.20;29.50;99305;;;;582930;243;23008;-82
2022/09/26 09:26:58;;;;;;;14.68;13.18;;;30.60;53.80;28.90;99306;;;;584505;243;24068;-83
2022/09/26 09:29:53;;;;;;;12.40;11.30;;;30.00;56.10;28.90;99310;;;;585122;243;23035;-83
2022/09/26 09:32:21;;;;;;;14.52;11.55;;;29.70;56.50;29.20;99312;;;;584942;243;23085;-85
2022/09/26 09:34:48;;;;;;;11.93;9.85;;;29.90;56.90;29.50;99315;;;;584594;243;23057;-85
2022/09/26 09:37:25;;;;;;;7.22;6.70;;;30.30;56.10;29.10;99313;;;;584176;243;23050;-83
2022/09/26 09:39:53;;;;;;;7.18;6.45;;;30.10;55.50;28.40;99310;;;;583134;243;23050;-83
2022/09/26 09:42:32;;;;;;;10.17;7.10;;;29.60;55.50;27.70;99322;;;;593308;242;23074;-83
2022/09/26 09:45:06;;;;;;;7.00;6.33;;;28.90;56.80;27.50;99311;;;;592762;242;24070;-82
2022/09/26 09:47:34;;;;;;;7.17;6.63;;;28.50;57.70;27.30;99315;;;;583587;243;23085;-82
2022/09/26 09:50:02;;;;;;;8.03;6.77;;;28.20;58.80;27.10;99315;;;;583844;243;24088;-82
2022/09/26 09:52:44;;;;;;;7.50;6.57;;;27.90;59.40;27.00;99318;;;;584072;243;23078;-83
2022/09/26 09:55:37;;;;;;;10.27;7.40;;;27.80;59.70;26.70;99313;;;;584604;243;23116;-82
2022/09/26 09:58:06;;;;;;;7.77;6.97;;;27.00;61.00;26.20;99324;;;;584421;243;23088;-83
2022/09/26 10:00:34;;;;;;;7.70;7.00;;;26.90;60.90;25.60;99320;;;;583406;243;23084;-84
2022/09/26 10:03:04;;;;;;;7.70;7.00;;;26.40;62.40;25.20;99319;;;;584911;242;23050;-84
2022/09/26 10:05:44;;;;;;;9.37;7.17;;;26.00;64.00;25.00;99311;;;;585045;242;23071;-85
2022/09/26 10:08:24;;;;;;;10.60;7.90;;;25.50;66.00;25.00;99317;;;;585141;242;24116;-83
2022/09/26 10:11:32;;;;;;;8.27;6.93;;;25.50;66.00;24.90;99316;;;;584866;242;24031;-82
2022/09/26 10:14:02;;;;;;;7.63;7.03;;;25.40;66.50;24.70;99314;;;;584264;242;24084;-82
2022/09/26 10:16:28;;;;;;;9.20;7.13;;;25.10;66.80;24.60;99318;;;;584160;242;23075;-81
2022/09/26 10:19:05;;;;;;;7.17;6.50;;;25.10;67.20;24.50;99320;;;;584521;242;24118;-81
2022/09/26 10:21:39;;;;;;;22.60;7.27;;;25.00;67.70;24.40;99317;;;;584043;243;24033;-81
2022/09/26 10:24:07;;;;;;;7.47;6.60;;;24.60;69.00;24.10;99300;;;;584065;243;24059;-81
2022/09/26 10:26:38;;;;;;;7.30;6.40;;;24.50;68.90;23.80;99311;;;;584222;243;24028;-84
2022/09/26 10:29:24;;;;;;;9.23;7.27;;;24.40;69.50;23.60;99309;;;;591401;243;24081;-85
2022/09/26 10:31:58;;;;;;;5.70;5.30;;;24.10;69.90;23.40;99305;;;;584694;243;24087;-84
2022/09/26 10:34:29;;;;;;;7.93;6.23;;;23.90;71.10;23.30;99310;;;;584721;243;24041;-84
2022/09/26 10:36:57;;;;;;;11.30;10.23;;;23.80;71.80;23.20;99309;;;;584549;243;24036;-82
2022/09/26 10:42:24;;;;;;;12.83;6.10;;;23.60;72.80;23.00;99308;;;;593507;242;24028;-82
2022/09/26 10:44:49;;;;;;;7.27;5.40;;;23.50;73.10;22.80;99311;;;;584310;243;24055;-83
2022/09/26 10:47:18;;;;;;;5.90;5.20;;;23.30;73.60;22.50;99307;;;;584319;243;24074;-82
2022/09/26 10:49:55;;;;;;;6.07;5.47;;;23.10;73.40;22.30;99304;;;;584091;243;24094;-84
2022/09/26 10:52:41;;;;;;;4.70;4.30;;;22.90;73.90;22.10;99294;;;;584188;243;24031;-82
2022/09/26 10:55:11;;;;;;;5.80;4.67;;;22.70;74.10;22.00;99290;;;;584280;243;24037;-83
2022/09/26 10:57:42;;;;;;;7.07;4.33;;;22.50;74.00;21.90;99295;;;;593525;240;24049;-83
2022/09/26 11:00:11;;;;;;;4.73;4.33;;;22.40;74.20;21.80;99294;;;;584205;242;24173;-84
2022/09/26 11:02:37;;;;;;;5.30;4.80;;;22.20;74.20;21.70;99289;;;;583858;243;24035;-83
2022/09/26 11:07:51;;;;;;;4.77;4.23;;;22.10;74.70;21.30;99294;;;;593213;242;23056;-83
2022/09/26 11:10:31;;;;;;;5.50;4.17;;;21.90;74.30;21.20;99293;;;;583801;243;23109;-82
2022/09/26 11:13:15;;;;;;;12.70;4.60;;;21.70;75.20;21.20;99290;;;;583842;243;24087;-82
2022/09/26 11:16:01;;;;;;;8.20;4.43;;;21.60;75.60;21.20;99288;;;;593949;240;23104;-83
2022/09/26 11:18:45;;;;;;;7.30;3.73;;;21.60;76.30;21.20;99289;;;;584332;242;23095;-82
2022/09/26 11:21:26;;;;;;;4.13;3.83;;;21.60;76.20;21.20;99291;;;;593855;242;23067;-82
2022/09/26 11:24:19;;;;;;;4.63;4.23;;;21.70;75.80;21.30;99296;;;;584087;242;23068;-83
2022/09/26 11:27:06;;;;;;;4.50;3.90;;;21.70;75.90;21.20;99294;;;;584243;242;24027;-82
2022/09/26 11:29:52;;;;;;;4.20;3.90;;;21.60;75.30;21.10;99298;;;;584298;242;24030;-84
2022/09/26 11:32:20;;;;;;;8.00;3.70;;;21.60;75.40;20.90;99291;;;;583882;243;24071;-83
2022/09/26 11:34:45;;;;;;;5.63;4.77;;;21.50;75.70;20.80;99291;;;;581906;243;24050;-83
2022/09/26 11:37:17;;;;;;;4.97;4.37;;;21.20;76.10;20.70;99289;;;;584162;243;23088;-82
2022/09/26 11:40:16;;;;;;;5.67;4.53;;;21.10;76.00;20.60;99296;;;;593621;242;23069;-85
2022/09/26 11:43:16;;;;;;;7.27;5.10;;;21.10;76.40;20.60;99288;;;;584599;243;24092;-83
2022/09/26 11:46:08;;;;;;;14.63;5.00;;;21.10;76.40;20.40;99283;;;;584976;243;24042;-84
2022/09/26 11:48:54;;;;;;;10.43;4.53;;;20.90;76.60;20.30;99287;;;;582976;243;23103;-83
2022/09/26 11:51:52;;;;;;;8.20;4.67;;;20.80;76.90;20.20;99283;;;;584413;243;24044;-84